sim
Sign-in with your pilot id or email,
or register
Callsign
Passwort

Schedule Details

Flight Number: EWG1753 (1)
Departure: London Stansted Airport (EGSS) at 19:30
Arrival: Munich Airport (EDDM) at 21:15
Route: Eurowings Passenger Schedule. Enter filed route here before submitting Pirep.

Weather Information
Getting current METAR information for EGSS 260250Z AUTO 30011G21KT 9999 BKN042 07/02 Q1008
Getting current METAR information for EDDM 260250Z 27011KT 9999 SCT016 BKN024 08/06 Q1000 NOSIG

Schedule Frequency

Route Map